Time;durP1;ratioP1;P1;durP2;ratioP2;P2;SDS_P1;SDS_P2;PMS_P1;PMS_P2;Temp;Humidity;BMP_temperature;BMP_pressure;BME280_temperature;BME280_humidity;BME280_pressure;Samples;Min_cycle;Max_cycle;Signal;HPM_P1;HPM_P2
2021/12/23 00:01:10;;;;;;;41.72;26.60;;;0.10;81.50;;;-1.32;77.85;97280.88;3980101;34;20282;-86
2021/12/23 00:03:37;;;;;;;47.30;24.55;;;0.10;81.60;;;-1.35;77.88;97273.97;3985295;34;20592;-86
2021/12/23 00:06:03;;;;;;;44.25;25.55;;;0.10;81.70;;;-1.34;77.55;97275.63;3964888;34;20270;-86
2021/12/23 00:08:29;;;;;;;48.47;25.35;;;0.10;81.50;;;-1.34;77.62;97270.28;3986945;34;20330;-86
2021/12/23 00:10:56;;;;;;;40.40;23.95;;;0.10;81.60;;;-1.34;77.40;97278.31;3966666;34;20279;-85
2021/12/23 00:13:23;;;;;;;41.97;23.83;;;0.10;81.70;;;-1.33;77.66;97277.31;3945212;34;20417;-86
2021/12/23 00:23:59;;;;;;;40.22;23.23;;;0.10;82.70;;;-1.34;77.62;97275.63;3909894;34;20281;-85
2021/12/23 00:26:26;;;;;;;39.47;22.55;;;0.10;81.60;;;-1.35;77.75;97287.38;3921180;34;20297;-86
2021/12/23 00:28:57;;;;;;;37.95;23.58;;;0.10;81.60;;;-1.35;77.62;97283.88;3917210;34;20641;-85
2021/12/23 00:31:23;;;;;;;36.92;22.20;;;0.10;81.70;;;-1.37;77.74;97286.75;3917636;34;20320;-85
2021/12/23 00:34:02;;;;;;;36.13;22.10;;;0.10;81.90;;;-1.36;77.62;97293.78;3940556;34;20322;-86
2021/12/23 00:36:31;;;;;;;39.55;22.55;;;0.10;81.60;;;-1.35;77.82;97283.88;3919543;34;20005;-85
2021/12/23 00:39:01;;;;;;;38.35;22.35;;;0.10;81.60;;;-1.36;77.57;97291.13;3895962;34;20261;-86
2021/12/23 00:41:34;;;;;;;41.10;21.75;;;0.10;81.60;;;-1.36;77.56;97280.38;3920401;34;20117;-85
2021/12/23 00:44:04;;;;;;;40.30;22.42;;;0.10;81.60;;;-1.36;77.45;97284.88;3894406;34;19993;-86
2021/12/23 00:46:30;;;;;;;37.70;21.83;;;0.10;81.70;;;-1.38;77.75;97290.44;3938234;34;20305;-86
2021/12/23 00:48:56;;;;;;;34.30;20.52;;;0.10;81.90;;;-1.37;77.61;97288.56;3917876;34;20603;-86
2021/12/23 00:51:23;;;;;;;33.53;20.55;;;0.10;81.90;;;-1.36;77.71;97287.56;3895975;34;20300;-85
2021/12/23 00:53:52;;;;;;;37.55;21.23;;;0.10;81.90;;;-1.37;77.59;97284.06;3917615;34;20297;-85
2021/12/23 00:56:18;;;;;;;36.55;21.35;;;0.10;81.90;;;-1.37;77.63;97281.38;3916912;34;20289;-86
2021/12/23 00:58:45;;;;;;;34.88;21.55;;;0.10;81.70;;;-1.37;77.73;97286.75;3957949;34;20740;-86
2021/12/23 01:01:11;;;;;;;33.10;20.20;;;0.10;82.00;;;-1.39;77.80;97272.63;3977964;34;20277;-86
2021/12/23 01:03:37;;;;;;;37.50;21.45;;;0.10;81.90;;;-1.37;77.99;97276.00;4001274;34;20300;-86
2021/12/23 01:06:04;;;;;;;39.45;21.33;;;0.10;81.80;;;-1.40;77.93;97277.16;4005877;34;20004;-86
2021/12/23 01:08:30;;;;;;;35.20;20.98;;;0.10;81.70;;;-1.40;78.17;97270.97;3965482;34;20590;-86
2021/12/23 01:10:59;;;;;;;37.67;21.42;;;0.10;82.00;;;-1.39;77.69;97273.47;3966344;34;20269;-86
2021/12/23 01:13:27;;;;;;;36.03;20.95;;;0.10;81.70;;;-1.39;77.90;97267.25;3968491;34;20661;-86
2021/12/23 01:16:03;;;;;;;37.17;21.23;;;0.10;81.70;;;-1.39;77.72;97267.25;3965234;34;20375;-86
2021/12/23 01:18:44;;;;;;;;;;;0.10;81.70;;;-1.40;77.76;97258.34;3986022;34;20534;-86
2021/12/23 01:21:17;;;;;;;40.03;21.90;;;0.10;81.80;;;-1.39;77.82;97261.91;4008381;34;20198;-86
2021/12/23 01:23:51;;;;;;;36.22;21.58;;;0.00;81.60;;;-1.40;77.60;97262.91;3986978;34;20659;-86
2021/12/23 01:26:22;;;;;;;37.78;22.83;;;0.10;81.90;;;-1.42;77.63;97252.31;3987797;34;20617;-86
2021/12/23 01:28:58;;;;;;;37.78;22.15;;;0.00;81.70;;;-1.41;77.77;97253.97;4011215;34;20298;-86
2021/12/23 01:31:27;;;;;;;;;;;0.00;81.70;;;-1.41;77.80;97253.16;4010582;34;20295;-86
2021/12/23 01:33:53;;;;;;;35.53;21.00;;;0.10;81.90;;;-1.44;78.00;97246.28;3990113;34;20210;-86
2021/12/23 01:36:20;;;;;;;38.88;21.55;;;0.10;82.00;;;-1.44;78.09;97253.50;3967587;34;20332;-86
2021/12/23 01:38:46;;;;;;;35.15;22.13;;;0.10;82.00;;;-1.42;77.94;97246.94;3985280;34;20550;-86
2021/12/23 01:41:12;;;;;;;36.80;21.67;;;0.00;81.80;;;-1.46;77.76;97242.94;3984619;34;20333;-86
2021/12/23 01:43:39;;;;;;;37.70;22.00;;;0.00;81.90;;;-1.43;77.73;97244.44;3985027;34;20540;-86
2021/12/23 01:46:05;;;;;;;35.88;21.75;;;0.00;81.80;;;-1.45;77.73;97236.56;3964903;34;20594;-85
2021/12/23 01:48:31;;;;;;;36.95;21.80;;;0.00;81.80;;;-1.45;77.59;97238.38;4008654;34;20626;-85
2021/12/23 01:50:58;;;;;;;36.78;22.70;;;0.00;81.70;;;-1.46;77.99;97234.00;4008396;34;20286;-86
2021/12/23 01:53:24;;;;;;;36.55;21.67;;;0.00;81.90;;;-1.46;77.90;97228.66;3966301;34;20264;-86
2021/12/23 01:55:51;;;;;;;35.13;21.93;;;0.00;81.80;;;-1.46;77.61;97234.00;3983784;34;20330;-86
2021/12/23 01:58:18;;;;;;;34.63;21.92;;;0.00;81.80;;;-1.47;77.95;97224.28;3961640;34;20324;-85
2021/12/23 02:00:49;;;;;;;38.00;22.27;;;0.00;81.90;;;-1.46;77.90;97228.66;3980040;34;20300;-86
2021/12/23 02:03:15;;;;;;;39.92;22.42;;;0.00;81.90;;;-1.44;78.27;97232.00;3942885;34;20081;-85
2021/12/23 02:05:42;;;;;;;39.67;21.80;;;0.00;82.00;;;-1.45;77.84;97219.59;3986436;34;20295;-85
2021/12/23 02:08:09;;;;;;;39.80;21.80;;;0.00;81.90;;;-1.48;77.93;97220.78;3987563;34;20310;-86
2021/12/23 02:10:35;;;;;;;37.95;22.10;;;0.00;82.00;;;-1.46;77.97;97228.66;3965426;34;20582;-86
2021/12/23 02:13:01;;;;;;;38.58;22.33;;;0.00;82.00;;;-1.47;77.96;97218.91;3967124;34;20395;-86
2021/12/23 02:15:28;;;;;;;38.25;23.20;;;0.00;82.00;;;-1.47;77.97;97217.06;4008146;34;20073;-86
2021/12/23 02:17:54;;;;;;;38.88;21.58;;;0.00;81.90;;;-1.47;78.18;97217.06;3982608;34;20339;-86
2021/12/23 02:20:29;;;;;;;37.78;20.48;;;0.00;82.00;;;-1.47;77.91;97219.75;3960482;34;20287;-85
2021/12/23 02:22:56;;;;;;;33.03;21.48;;;0.00;81.80;;;-1.49;78.14;97208.34;3988613;34;20558;-86
2021/12/23 02:25:22;;;;;;;39.15;24.42;;;0.00;82.10;;;-1.47;77.91;97202.78;3942723;34;20267;-86
2021/12/23 02:27:49;;;;;;;36.22;20.50;;;0.00;81.90;;;-1.47;78.13;97210.84;3988480;34;20095;-85
2021/12/23 02:30:26;;;;;;;37.20;21.85;;;0.00;81.90;;;-1.46;77.92;97212.53;4007327;34;20325;-85
2021/12/23 02:32:53;;;;;;;38.97;21.95;;;0.00;82.00;;;-1.48;77.87;97206.47;3990791;34;20218;-87
2021/12/23 02:35:20;;;;;;;34.78;21.55;;;0.00;82.00;;;-1.47;77.96;97200.09;3968803;34;20288;-87
2021/12/23 02:37:47;;;;;;;37.10;22.30;;;0.00;82.00;;;-1.48;77.71;97204.66;3965965;34;20318;-86
2021/12/23 02:40:33;;;;;;;30.92;19.33;;;0.00;81.90;;;-1.49;77.93;97199.47;3943082;34;20503;-87
2021/12/23 02:43:18;;;;;;;36.05;20.90;;;0.00;81.90;;;-1.49;78.02;97196.78;3986016;34;19992;-86
2021/12/23 02:45:47;;;;;;;35.65;20.65;;;-0.10;81.80;;;-1.49;78.11;97196.78;4009300;34;20288;-86
2021/12/23 02:48:38;;;;;;;32.90;20.48;;;0.00;82.00;;;-1.49;77.77;97191.41;3989585;34;20311;-87
2021/12/23 02:51:09;;;;;;;33.17;20.40;;;0.00;81.90;;;-1.50;77.64;97187.03;3975479;34;20291;-87
2021/12/23 02:53:36;;;;;;;34.42;20.30;;;0.00;81.80;;;-1.51;77.52;97182.69;3946456;34;20275;-86
2021/12/23 02:56:05;;;;;;;34.53;20.98;;;-0.10;81.70;;;-1.51;77.87;97182.69;3968347;34;20539;-86
2021/12/23 02:58:32;;;;;;;34.88;20.08;;;-0.10;81.70;;;-1.51;77.64;97178.13;3947228;34;20616;-86
2021/12/23 03:01:00;;;;;;;34.40;20.10;;;-0.10;81.70;;;-1.51;77.71;97180.00;3967695;34;20613;-86
2021/12/23 03:03:26;;;;;;;32.42;20.75;;;-0.10;81.70;;;-1.50;78.13;97173.63;4012180;34;20016;-85
2021/12/23 03:05:55;;;;;;;36.13;21.57;;;-0.10;81.90;;;-1.51;78.20;97183.50;3968761;34;20038;-85
2021/12/23 03:08:45;;;;;;;38.08;22.13;;;-0.10;82.10;;;-1.52;77.94;97181.00;3950438;34;20300;-87
2021/12/23 03:11:15;;;;;;;38.13;21.08;;;0.00;81.90;;;-1.53;77.72;97179.31;3992798;34;20368;-86
2021/12/23 03:13:41;;;;;;;35.40;20.75;;;-0.10;81.90;;;-1.55;77.64;97182.19;3971254;34;20321;-85
2021/12/23 03:16:07;;;;;;;38.40;21.63;;;-0.10;82.00;;;-1.54;78.01;97183.84;3968711;34;20016;-86
2021/12/23 03:18:34;;;;;;;35.88;20.77;;;-0.10;82.00;;;-1.53;77.87;97184.69;4012695;34;20103;-85
2021/12/23 03:21:01;;;;;;;34.08;20.42;;;-0.10;82.00;;;-1.58;78.11;97191.41;4008644;34;20509;-87
2021/12/23 03:23:27;;;;;;;36.28;22.90;;;-0.10;82.00;;;-1.55;78.00;97188.38;3968291;34;20004;-86
2021/12/23 03:25:54;;;;;;;37.28;20.08;;;-0.10;81.90;;;-1.58;77.67;97188.72;3988732;34;20319;-86
2021/12/23 03:28:20;;;;;;;35.53;21.23;;;-0.10;81.70;;;-1.55;77.96;97188.38;3973150;34;20314;-85
2021/12/23 03:30:47;;;;;;;35.38;20.95;;;-0.10;81.90;;;-1.56;77.86;97202.81;3994164;34;20269;-85
2021/12/23 03:33:14;;;;;;;38.03;21.13;;;-0.10;81.90;;;-1.58;77.85;97199.44;3946667;34;19996;-84
2021/12/23 03:35:40;;;;;;;37.53;21.02;;;-0.10;82.00;;;-1.58;78.03;97195.94;3949388;34;20294;-85
2021/12/23 03:38:07;;;;;;;34.50;20.30;;;-0.10;82.00;;;-1.59;77.75;97189.72;3990128;34;20692;-85
2021/12/23 03:40:33;;;;;;;36.30;21.13;;;-0.10;81.90;;;-1.60;77.82;97192.59;3988970;34;20011;-85
2021/12/23 03:43:00;;;;;;;39.70;21.02;;;-0.10;82.00;;;-1.62;77.69;97190.09;3966531;34;20306;-85
2021/12/23 03:45:26;;;;;;;35.38;20.40;;;-0.10;81.80;;;-1.60;77.85;97201.47;3967995;34;20291;-85
2021/12/23 03:47:52;;;;;;;34.42;20.63;;;-0.10;81.90;;;-1.60;77.66;97206.84;3947803;34;19996;-85
2021/12/23 03:50:21;;;;;;;36.05;21.50;;;-0.10;81.90;;;-1.62;77.91;97208.88;3973360;34;20287;-86
2021/12/23 03:52:47;;;;;;;38.45;22.23;;;-0.10;81.80;;;-1.62;77.74;97195.44;3976455;34;20544;-86
2021/12/23 03:55:14;;;;;;;36.20;22.02;;;-0.20;81.80;;;-1.60;77.94;97203.31;3997982;34;20367;-86
2021/12/23 03:57:41;;;;;;;35.30;20.60;;;-0.20;81.80;;;-1.62;77.85;97211.56;3997040;34;20398;-86
2021/12/23 04:00:11;;;;;;;36.58;20.52;;;-0.20;81.70;;;-1.61;77.74;97215.06;3992360;34;20371;-86
2021/12/23 04:02:38;;;;;;;39.85;21.00;;;-0.20;81.60;;;-1.65;77.96;97203.84;3989650;34;20351;-85
2021/12/23 04:05:06;;;;;;;37.38;20.23;;;-0.20;81.80;;;-1.66;77.95;97207.53;3970873;34;20536;-86
2021/12/23 04:07:36;;;;;;;32.95;19.98;;;-0.20;81.80;;;-1.65;78.07;97219.94;3973798;34;20502;-85
2021/12/23 04:10:05;;;;;;;36.15;20.40;;;-0.20;81.90;;;-1.65;77.92;97219.94;3972843;34;20281;-85
2021/12/23 04:12:31;;;;;;;34.17;19.88;;;-0.20;81.80;;;-1.67;77.80;97219.25;4018693;34;20276;-86
2021/12/23 04:14:57;;;;;;;36.78;20.42;;;-0.20;81.80;;;-1.68;77.66;97214.06;3976505;34;20000;-86
2021/12/23 04:17:24;;;;;;;30.73;18.02;;;-0.20;81.80;;;-1.68;77.67;97219.44;4016883;34;20609;-86
2021/12/23 04:19:50;;;;;;;34.13;19.25;;;-0.20;81.70;;;-1.67;78.07;97216.59;3999379;34;20361;-86
2021/12/23 04:22:17;;;;;;;35.22;19.60;;;-0.20;81.90;;;-1.68;77.42;97219.44;3979690;34;20449;-85
2021/12/23 04:24:43;;;;;;;29.88;17.77;;;-0.20;81.80;;;-1.69;78.12;97218.59;3999954;34;20558;-85
2021/12/23 04:27:09;;;;;;;30.25;17.63;;;-0.20;81.80;;;-1.70;77.55;97217.75;3975168;34;20292;-86
2021/12/23 04:29:36;;;;;;;29.17;17.23;;;-0.20;81.90;;;-1.70;77.90;97217.75;3977363;34;20527;-85
2021/12/23 04:32:02;;;;;;;31.20;18.92;;;-0.20;81.80;;;-1.72;77.83;97222.47;3953028;34;20283;-86
2021/12/23 04:34:29;;;;;;;32.38;17.33;;;-0.20;81.80;;;-1.73;77.30;97217.25;3983212;34;20648;-86
2021/12/23 04:36:55;;;;;;;28.00;16.55;;;-0.30;81.70;;;-1.72;77.68;97214.41;3981036;34;20281;-86
2021/12/23 04:39:21;;;;;;;30.02;16.83;;;-0.30;81.80;;;-1.74;77.51;97210.19;4000285;34;19988;-85
2021/12/23 04:41:47;;;;;;;28.95;17.05;;;-0.30;81.60;;;-1.73;77.78;97206.50;4017801;34;20388;-86
2021/12/23 04:44:14;;;;;;;27.42;16.23;;;-0.30;81.70;;;-1.74;77.55;97208.34;3971896;34;20519;-85
2021/12/23 04:46:40;;;;;;;27.95;15.85;;;-0.30;81.90;;;-1.75;77.93;97203.16;3994442;34;20300;-86
2021/12/23 04:49:06;;;;;;;27.52;16.33;;;-0.30;81.60;;;-1.74;77.60;97207.50;3970184;34;20345;-86
2021/12/23 04:51:32;;;;;;;26.75;15.60;;;-0.30;81.90;;;-1.74;77.58;97216.41;3967012;34;20284;-86
2021/12/23 04:53:59;;;;;;;28.92;16.55;;;-0.30;82.00;;;-1.78;77.66;97209.69;3967788;34;20072;-86
2021/12/23 04:56:25;;;;;;;29.85;15.38;;;-0.30;82.00;;;-1.75;77.99;97216.59;3970301;34;20001;-86
2021/12/23 04:58:51;;;;;;;26.50;15.10;;;-0.30;82.10;;;-1.76;77.87;97214.91;3949869;34;20239;-86
2021/12/23 05:01:27;;;;;;;24.77;14.98;;;-0.30;82.00;;;-1.78;77.77;97204.31;3992674;34;20286;-86
2021/12/23 05:03:53;;;;;;;25.45;15.25;;;-0.30;81.70;;;-1.76;77.54;97212.22;3970651;34;20135;-86
2021/12/23 05:06:20;;;;;;;26.63;15.02;;;-0.30;81.60;;;-1.78;77.68;97206.19;3973224;34;20293;-86
2021/12/23 05:08:46;;;;;;;23.30;14.18;;;-0.30;81.60;;;-1.78;77.65;97204.31;3953557;34;20581;-85
2021/12/23 05:11:12;;;;;;;24.15;14.65;;;-0.30;81.60;;;-1.81;77.52;97196.63;3966656;34;20076;-86
2021/12/23 05:13:39;;;;;;;24.95;13.90;;;-0.30;81.70;;;-1.81;77.68;97198.47;3972779;34;20302;-87
2021/12/23 05:16:05;;;;;;;20.33;12.30;;;-0.30;81.60;;;-1.79;77.27;97204.50;3971313;34;20312;-85
2021/12/23 05:18:32;;;;;;;20.73;12.68;;;-0.30;81.50;;;-1.81;77.28;97209.19;3988566;34;20613;-86
2021/12/23 05:20:58;;;;;;;25.48;14.10;;;-0.30;81.50;;;-1.82;77.69;97207.50;3963661;34;20276;-85
2021/12/23 05:23:24;;;;;;;18.55;11.65;;;-0.30;81.70;;;-1.81;77.60;97203.81;3963777;34;20015;-86
2021/12/23 05:25:51;;;;;;;23.48;13.50;;;-0.30;81.80;;;-1.84;77.70;97210.38;3985477;34;20539;-85
2021/12/23 05:28:17;;;;;;;22.50;13.00;;;-0.40;81.60;;;-1.82;77.80;97207.50;3966565;34;20324;-86
2021/12/23 05:30:43;;;;;;;22.17;12.43;;;-0.40;81.70;;;-1.82;77.92;97205.69;3969452;34;20596;-86
2021/12/23 05:33:09;;;;;;;19.85;13.18;;;-0.30;82.10;;;-1.82;77.88;97207.50;3991494;34;20286;-86
2021/12/23 05:35:36;;;;;;;18.80;12.30;;;-0.40;81.80;;;-1.86;77.89;97202.47;3967191;34;20356;-86
2021/12/23 05:38:02;;;;;;;20.35;12.13;;;-0.40;81.80;;;-1.86;77.40;97204.34;3946609;34;20078;-84
2021/12/23 05:40:29;;;;;;;21.50;11.80;;;-0.40;81.60;;;-1.86;77.77;97201.66;3968523;34;20308;-86
2021/12/23 05:42:56;;;;;;;21.80;12.77;;;-0.40;81.60;;;-1.85;77.90;97211.38;3992747;34;20319;-86
2021/12/23 05:45:22;;;;;;;20.88;12.50;;;-0.40;81.70;;;-1.86;78.31;97207.84;3974572;34;20303;-86
2021/12/23 05:47:49;;;;;;;21.60;12.95;;;-0.40;82.00;;;-1.88;77.82;97203.66;3960219;34;20337;-86
2021/12/23 05:50:17;;;;;;;19.90;13.32;;;-0.40;82.00;;;-1.89;78.06;97202.81;3974617;34;20305;-85
2021/12/23 05:52:44;;;;;;;23.42;14.68;;;-0.40;81.90;;;-1.88;77.76;97207.19;3993913;34;20320;-86
2021/12/23 05:55:12;;;;;;;21.77;12.90;;;-0.40;81.70;;;-1.89;77.76;97204.66;3980616;34;20288;-86
2021/12/23 05:57:39;;;;;;;21.80;12.82;;;-0.40;81.80;;;-1.92;77.78;97200.47;3981328;34;19993;-84
2021/12/23 06:00:12;;;;;;;21.13;12.98;;;-0.40;81.80;;;-1.88;77.38;97206.34;3977518;34;20284;-85
2021/12/23 06:02:38;;;;;;;21.77;12.15;;;-0.40;81.70;;;-1.92;77.95;97208.53;3972930;34;20309;-85
2021/12/23 06:05:05;;;;;;;22.73;13.32;;;-0.40;81.80;;;-1.93;77.48;97206.84;3988932;34;20276;-86
2021/12/23 06:07:32;;;;;;;22.60;13.35;;;-0.40;81.80;;;-1.91;77.68;97215.56;3978905;34;20284;-86
2021/12/23 06:09:58;;;;;;;22.90;13.63;;;-0.40;81.60;;;-1.92;77.66;97205.84;3953540;34;20306;-86
2021/12/23 06:12:24;;;;;;;21.85;12.88;;;-0.40;81.70;;;-1.94;77.70;97210.53;3993669;34;20016;-86
2021/12/23 06:14:51;;;;;;;21.60;12.07;;;-0.40;81.50;;;-1.92;77.77;97211.22;3993956;34;20338;-86
2021/12/23 06:17:17;;;;;;;23.45;12.80;;;-0.40;81.60;;;-1.88;77.79;97219.75;3968741;34;19981;-86
2021/12/23 06:19:43;;;;;;;23.75;13.02;;;-0.40;81.80;;;-1.87;77.88;97216.91;3989364;34;20817;-86
2021/12/23 06:22:10;;;;;;;26.27;12.75;;;-0.40;81.80;;;-1.82;77.42;97221.78;4036645;34;20024;-86
2021/12/23 06:24:36;;;;;;;18.35;12.30;;;-0.30;81.60;;;-1.78;77.16;97219.59;3966574;34;20549;-85
2021/12/23 06:27:03;;;;;;;17.42;11.77;;;-0.30;81.40;;;-1.74;77.49;97215.56;3964571;34;20340;-86
2021/12/23 06:29:29;;;;;;;17.65;11.38;;;-0.30;81.40;;;-1.71;76.99;97215.22;3976946;34;20293;-86
2021/12/23 06:31:56;;;;;;;19.15;11.90;;;-0.20;81.00;;;-1.68;76.89;97212.22;3977424;34;20283;-85
2021/12/23 06:34:22;;;;;;;19.55;11.48;;;-0.20;81.00;;;-1.65;76.78;97224.47;3975275;34;20417;-85
2021/12/23 06:36:55;;;;;;;20.33;11.60;;;-0.20;80.50;;;-1.63;76.54;97212.56;4001204;34;20450;-87
2021/12/23 06:39:21;;;;;;;18.75;11.95;;;-0.10;80.40;;;-1.59;76.09;97219.25;3979064;34;20390;-85
2021/12/23 06:41:47;;;;;;;18.02;12.13;;;-0.10;80.20;;;-1.58;76.26;97212.06;4002807;34;20008;-86
2021/12/23 06:44:17;;;;;;;21.50;12.82;;;-0.10;80.10;;;-1.53;76.69;97217.75;3979958;34;20370;-87
2021/12/23 06:46:45;;;;;;;22.75;13.05;;;-0.10;80.20;;;-1.52;76.51;97213.22;3976099;34;20176;-86
2021/12/23 06:49:16;;;;;;;19.73;13.13;;;-0.10;80.10;;;-1.49;76.09;97212.91;3980646;34;20075;-86
2021/12/23 06:51:44;;;;;;;22.52;14.18;;;0.00;79.70;;;-1.46;75.59;97207.16;3978392;34;19988;-87
2021/12/23 06:54:14;;;;;;;22.40;14.00;;;0.00;79.60;;;-1.46;76.01;97212.53;3975884;34;20017;-86
2021/12/23 06:56:41;;;;;;;23.77;15.75;;;0.00;79.50;;;-1.44;75.68;97213.22;3996313;34;20284;-85
2021/12/23 06:59:25;;;;;;;26.25;16.15;;;0.10;79.60;;;-1.42;75.87;97213.88;3976969;34;20302;-86
2021/12/23 07:02:07;;;;;;;;;;;0.10;79.50;;;-1.40;76.09;97217.25;4046082;34;20393;-87
2021/12/23 07:04:35;;;;;;;25.50;15.57;;;0.10;79.60;;;-1.39;75.88;97214.38;3951301;34;20284;-86
2021/12/23 07:07:24;;;;;;;29.67;18.95;;;0.10;79.60;;;-1.36;75.80;97204.31;3981022;34;20371;-86
2021/12/23 07:09:50;;;;;;;35.97;21.45;;;0.10;79.60;;;-1.36;75.49;97210.53;4006878;34;20220;-87
2021/12/23 07:12:16;;;;;;;38.30;24.65;;;0.10;79.50;;;-1.36;75.43;97213.22;3977231;34;20008;-85
2021/12/23 07:14:43;;;;;;;38.60;24.65;;;0.10;79.30;;;-1.36;75.89;97202.47;3999884;34;20336;-85
2021/12/23 07:17:09;;;;;;;41.78;24.20;;;0.10;79.50;;;-1.35;75.79;97203.28;4007040;34;20323;-86
2021/12/23 07:19:35;;;;;;;43.35;26.30;;;0.10;79.60;;;-1.34;76.05;97205.81;3977593;34;20607;-87
2021/12/23 07:22:03;;;;;;;44.45;27.10;;;0.10;79.50;;;-1.33;75.64;97202.09;3980814;34;20028;-86
2021/12/23 07:24:30;;;;;;;42.28;26.17;;;0.10;79.50;;;-1.34;75.36;97205.81;3997602;34;20378;-87
2021/12/23 07:26:56;;;;;;;44.03;28.42;;;0.10;79.20;;;-1.33;75.68;97202.09;4003264;34;20012;-87
2021/12/23 07:29:23;;;;;;;46.80;29.65;;;0.10;79.40;;;-1.31;75.40;97205.47;3979982;34;20075;-86
2021/12/23 07:31:52;;;;;;;52.88;30.73;;;0.10;79.40;;;-1.32;75.65;97201.09;3981089;34;20042;-86
2021/12/23 07:34:18;;;;;;;49.17;29.45;;;0.10;79.30;;;-1.29;75.54;97203.44;3975572;34;20707;-86
2021/12/23 07:37:35;;;;;;;53.03;30.45;;;0.20;79.40;;;-1.27;75.60;97204.13;3961683;34;20294;-86
2021/12/23 07:40:05;;;;;;;49.30;30.35;;;0.20;79.40;;;-1.26;75.46;97203.13;4022137;34;20355;-85
2021/12/23 07:42:32;;;;;;;50.85;31.73;;;0.20;79.20;;;-1.24;75.25;97203.78;3966458;34;20330;-86
2021/12/23 07:45:01;;;;;;;56.45;32.42;;;0.20;79.30;;;-1.25;75.18;97196.75;3936467;34;20312;-86
2021/12/23 07:47:29;;;;;;;53.60;31.83;;;0.20;79.30;;;-1.20;75.44;97200.75;3981904;34;20256;-85
2021/12/23 07:49:56;;;;;;;55.38;33.13;;;0.20;79.30;;;-1.17;75.00;97197.72;3978884;34;20268;-85
2021/12/23 07:52:22;;;;;;;58.00;32.50;;;0.30;78.90;;;-1.13;75.30;97199.88;3941327;34;20721;-84
2021/12/23 07:54:50;;;;;;;50.70;31.70;;;0.30;79.20;;;-1.10;75.12;97190.66;3971294;34;20052;-85
2021/12/23 07:57:16;;;;;;;54.60;33.25;;;0.30;79.00;;;-1.04;75.02;97189.13;3992606;34;20407;-85
2021/12/23 07:59:43;;;;;;;55.58;31.58;;;0.40;79.00;;;-1.01;74.91;97191.47;3966085;34;20293;-85
2021/12/23 08:02:09;;;;;;;60.30;33.65;;;0.40;78.70;;;-0.99;74.52;97187.59;3999873;34;20282;-85
2021/12/23 08:04:36;;;;;;;53.47;33.00;;;0.40;78.70;;;-0.97;74.40;97188.25;3986709;34;20195;-85
2021/12/23 08:07:03;;;;;;;52.13;32.72;;;0.40;78.60;;;-0.94;74.44;97184.41;3989503;34;19997;-85
2021/12/23 08:09:30;;;;;;;52.75;31.02;;;0.50;78.60;;;-0.89;74.21;97187.38;3962740;34;20005;-85
2021/12/23 08:11:59;;;;;;;52.53;32.75;;;0.50;78.40;;;-0.87;74.24;97184.53;3994179;34;20114;-86
2021/12/23 08:14:25;;;;;;;52.85;32.22;;;0.50;78.10;;;-0.84;73.75;97178.81;3990765;34;20294;-85
2021/12/23 08:16:51;;;;;;;54.97;33.63;;;0.60;77.60;;;-0.80;73.46;97186.38;3990848;34;20008;-85
2021/12/23 08:19:17;;;;;;;53.70;32.78;;;0.60;77.30;;;-0.80;73.21;97180.13;3989376;34;20285;-86
2021/12/23 08:21:44;;;;;;;53.60;31.48;;;0.60;77.00;;;-0.76;73.38;97186.84;3968676;34;20282;-85
2021/12/23 08:24:10;;;;;;;53.67;33.55;;;0.70;77.20;;;-0.70;72.91;97185.31;3995029;34;20293;-84
2021/12/23 08:26:41;;;;;;;56.67;33.25;;;0.70;77.10;;;-0.69;73.27;97187.81;3988933;34;20377;-84
2021/12/23 08:29:08;;;;;;;51.50;32.95;;;0.70;77.20;;;-0.67;73.41;97185.78;3974933;34;20277;-84
2021/12/23 08:31:35;;;;;;;55.78;33.97;;;0.70;77.10;;;-0.63;73.16;97179.06;4019338;34;20322;-84
2021/12/23 08:34:01;;;;;;;48.80;31.50;;;0.80;77.10;;;-0.62;73.09;97172.66;3996974;34;20360;-85
2021/12/23 08:36:29;;;;;;;51.05;30.35;;;0.80;77.10;;;-0.58;73.44;97173.16;3996926;34;20008;-85
2021/12/23 08:38:57;;;;;;;49.28;30.55;;;0.80;77.10;;;-0.58;73.30;97167.78;3989314;34;20080;-85
2021/12/23 08:41:23;;;;;;;49.10;31.58;;;0.80;77.00;;;-0.56;73.26;97156.81;3996135;34;20291;-85
2021/12/23 08:43:49;;;;;;;49.65;31.63;;;0.90;77.30;;;-0.54;73.58;97161.03;3986204;34;20294;-84
2021/12/23 08:46:15;;;;;;;50.20;30.35;;;0.90;77.20;;;-0.52;73.45;97155.47;4021229;34;20197;-85
2021/12/23 08:48:42;;;;;;;47.67;30.08;;;0.90;77.50;;;-0.51;73.54;97146.38;4032420;34;19989;-84
2021/12/23 08:51:14;;;;;;;44.33;28.65;;;0.90;77.50;;;-0.50;73.59;97142.69;4025635;34;20294;-85
2021/12/23 08:53:41;;;;;;;46.15;29.40;;;0.90;77.40;;;-0.51;73.61;97136.44;4001685;34;20008;-85
2021/12/23 08:56:08;;;;;;;42.75;27.98;;;0.90;77.40;;;-0.48;74.02;97130.72;4008760;34;20301;-84
2021/12/23 08:58:37;;;;;;;42.70;26.75;;;0.90;77.50;;;-0.46;73.39;97127.88;4021007;34;20291;-85
2021/12/23 09:01:11;;;;;;;47.15;29.42;;;0.90;77.40;;;-0.45;73.86;97128.69;4005322;34;20293;-85
2021/12/23 09:03:37;;;;;;;45.58;29.23;;;1.00;77.50;;;-0.46;73.97;97127.88;4009326;34;20291;-85
2021/12/23 09:06:07;;;;;;;40.97;26.92;;;1.00;77.60;;;-0.44;74.17;97120.44;4004314;34;20320;-85
2021/12/23 09:08:34;;;;;;;41.83;26.83;;;1.00;77.70;;;-0.43;73.99;97121.28;4011139;34;20300;-85
2021/12/23 09:11:01;;;;;;;42.03;26.63;;;1.00;77.60;;;-0.41;74.00;97117.41;4011768;34;20005;-86
2021/12/23 09:13:42;;;;;;;44.10;27.38;;;1.00;77.60;;;-0.41;73.55;97097.75;4011291;34;20013;-86
2021/12/23 09:16:08;;;;;;;41.53;25.55;;;1.00;77.60;;;-0.44;73.94;97090.84;4000427;34;19985;-85
2021/12/23 09:18:35;;;;;;;40.22;26.63;;;1.00;77.50;;;-0.43;73.99;97094.41;3990422;34;20019;-85
2021/12/23 09:21:02;;;;;;;40.90;25.88;;;1.00;77.50;;;-0.42;74.03;97088.81;3965286;34;19992;-85
2021/12/23 09:23:31;;;;;;;36.53;23.75;;;1.00;77.50;;;-0.44;73.86;97080.09;3999971;34;20278;-86
2021/12/23 09:26:00;;;;;;;38.15;23.20;;;1.00;77.50;;;-0.42;74.04;97072.69;3987574;34;20016;-86
2021/12/23 09:28:50;;;;;;;35.67;23.05;;;1.00;77.50;;;-0.43;73.96;97073.69;3995544;34;20080;-85
2021/12/23 09:34:02;;;;;;;33.15;21.33;;;1.00;77.50;;;-0.45;74.20;97067.66;4003863;34;20001;-86
2021/12/23 09:36:29;;;;;;;33.35;20.75;;;1.00;77.50;;;-0.45;73.93;97059.59;3995059;34;20312;-85
2021/12/23 09:38:59;;;;;;;30.17;20.10;;;1.00;77.50;;;-0.45;74.13;97056.91;4008323;34;20008;-85
2021/12/23 09:41:26;;;;;;;34.88;19.60;;;1.00;77.60;;;-0.48;74.21;97050.03;4012788;34;20356;-86
2021/12/23 09:43:56;;;;;;;28.08;19.48;;;1.00;77.50;;;-0.46;74.03;97047.19;4018768;34;20359;-86
2021/12/23 09:46:23;;;;;;;28.38;18.13;;;1.00;77.50;;;-0.48;74.02;97044.66;4050480;34;20028;-86
2021/12/23 09:48:50;;;;;;;30.05;19.25;;;1.00;77.50;;;-0.48;73.93;97043.81;4063132;34;20357;-86
2021/12/23 09:51:21;;;;;;;27.02;17.85;;;1.00;77.40;;;-0.51;73.96;97028.03;4030318;34;20020;-86
2021/12/23 09:53:57;;;;;;;25.50;17.58;;;1.00;77.40;;;-0.49;74.04;97036.78;4016688;34;20240;-85
2021/12/23 09:56:29;;;;;;;26.70;17.52;;;1.00;77.40;;;-0.51;74.04;97023.47;4052945;34;20336;-86
2021/12/23 09:58:57;;;;;;;26.63;16.95;;;1.00;77.40;;;-0.50;74.16;97027.84;4071279;33;20297;-86
2021/12/23 10:01:38;;;;;;;24.80;16.45;;;1.00;77.50;;;-0.53;74.15;97022.84;4077041;34;20318;-86
2021/12/23 10:04:05;;;;;;;25.48;16.40;;;1.00;77.60;;;-0.51;73.84;97025.34;4086802;33;20078;-85
2021/12/23 10:06:32;;;;;;;25.58;15.90;;;1.00;77.50;;;-0.52;74.12;97015.59;4012860;34;19988;-85
2021/12/23 10:08:59;;;;;;;22.75;15.20;;;1.00;77.50;;;-0.53;74.05;97004.03;4030364;34;20296;-86
2021/12/23 10:11:41;;;;;;;23.10;14.23;;;1.00;77.50;;;-0.53;74.69;97009.41;4033776;34;20159;-86
2021/12/23 10:40:03;;;;;;;18.15;10.70;;;0.90;76.90;;;-0.63;73.34;96988.13;4049046;34;20016;-86
2021/12/23 10:42:30;;;;;;;16.25;9.88;;;0.90;76.80;;;-0.64;73.31;96983.75;4061988;34;20274;-86
2021/12/23 10:44:59;;;;;;;16.92;9.50;;;0.90;77.60;;;-0.64;73.38;96975.69;4019318;34;20661;-85
2021/12/23 10:48:07;;;;;;;15.20;9.85;;;0.80;76.50;;;-0.66;73.02;96975.03;4063689;34;20023;-85
2021/12/23 10:53:10;;;;;;;14.57;9.05;;;0.80;76.20;;;-0.68;72.71;96963.63;4034153;34;20008;-85
2021/12/23 10:58:22;;;;;;;13.63;8.70;;;0.80;76.30;;;-0.70;72.93;96952.22;3996061;34;20286;-85